WetterOnline ( https://www.wetteronline.de )

Wetter aktuell Skive

Aktuelles Wetter: Karup (53m)

6-stündlich | Neueste Meldungen
Ortszeit Temperatur Wetter
Mi, 21.10. 2:00 11.6° C bedeckt
Di, 20.10. 20:00 7.7° C bedeckt
Di, 20.10. 14:00 10.3° C bedeckt
Di, 20.10. 8:00 7.7° C bewölkt
Di, 20.10. 2:00 7.1° C wolkig
Mo, 19.10. 20:00 7.0° C wolkenlos
Mo, 19.10. 14:00 12.2° C wolkig
Mo, 19.10. 8:00 3.2° C fast wolkenlos
Ortszeit Temperatur Wetter
Mi, 21.10. 4:20 13° C bedeckt
Mi, 21.10. 4:00 12.4° C bedeckt
Mi, 21.10. 3:50 12° C bedeckt
Mi, 21.10. 3:37 12° C bedeckt
Mi, 21.10. 3:20 12° C bedeckt
Mi, 21.10. 3:12 12° C bedeckt
Mi, 21.10. 3:00 12.1° C bedeckt
Mi, 21.10. 2:20 12° C bedeckt
Mi, 21.10. 2:00 11.6° C bedeckt
Mi, 21.10. 1:20 11° C Sprühregen
Mi, 21.10. 1:00 10.9° C bedeckt
Ortszeit Relative Feuchte Sichtweite
Mi, 21.10. 2:00 98% 2.9 km
Di, 20.10. 20:00 95% 5.0 km
Di, 20.10. 14:00 71% 40 km
Di, 20.10. 8:00 90% 10 km
Di, 20.10. 2:00 93% 30 km
Mo, 19.10. 20:00 89% 55 km
Mo, 19.10. 14:00 57% 50 km
Mo, 19.10. 8:00 91% 45 km
Ortszeit Relative Feuchte Sichtweite
Mi, 21.10. 4:20 94% 4.7 km
Mi, 21.10. 4:00 97% 4.1 km
Mi, 21.10. 3:50 100% 4.1 km
Mi, 21.10. 3:37 100% 4.1 km
Mi, 21.10. 3:20 100% 3.7 km
Mi, 21.10. 3:12 100% 3.6 km
Mi, 21.10. 3:00 98% 3.2 km
Mi, 21.10. 2:20 94% 3.1 km
Mi, 21.10. 2:00 98% 2.9 km
Mi, 21.10. 1:20 100% 1.8 km
Mi, 21.10. 1:00 98% 2.3 km
Ortszeit Niederschlagsmenge Niederschlagsart
Mi, 21.10. 2:00 0.5 l/m2 in 3 Std. Schauer
Di, 20.10. 20:00 0.5 l/m2 in 3 Std. Schauer
Di, 20.10. 14:00 0.0 l/m2 in 3 Std. -
Di, 20.10. 8:00 keine Meldung -
Di, 20.10. 2:00 0.0 l/m2 in 3 Std. -
Mo, 19.10. 20:00 0.0 l/m2 in 3 Std. -
Mo, 19.10. 14:00 0.3 l/m2 in 3 Std. -
Mo, 19.10. 8:00 0.0 l/m2 in 3 Std. -
Ortszeit Niederschlagsmenge Niederschlagsart
Mi, 21.10. 4:20 keine Meldung -
Mi, 21.10. 4:00 0.2 l/m2 in 1 Std. -
Mi, 21.10. 3:50 keine Meldung -
Mi, 21.10. 3:37 keine Meldung -
Mi, 21.10. 3:20 keine Meldung -
Mi, 21.10. 3:12 keine Meldung -
Mi, 21.10. 3:00 0.2 l/m2 in 1 Std. -
Mi, 21.10. 2:20 keine Meldung -
Mi, 21.10. 2:00 0.3 l/m2 in 1 Std. Schauer
Mi, 21.10. 1:20 keine Meldung -
Mi, 21.10. 1:00 0.1 l/m2 in 1 Std. Schauer
Ortszeit Stärke Spitze Richtung
km/h Bft. km/h Grad Sektor
Mi, 21.10. 2:00 15 3 - 200° S
Di, 20.10. 20:00 17 3 - 170° S
Di, 20.10. 14:00 17 3 - 160° S
Di, 20.10. 8:00 13 3 - 140° SO
Di, 20.10. 2:00 13 3 - 160° S
Mo, 19.10. 20:00 11 2 - 160° S
Mo, 19.10. 14:00 9 2 - 240° SW
Mo, 19.10. 8:00 9 2 - 220° SW
Ortszeit Stärke Spitze Richtung
km/h Bft. km/h Grad Sektor
Mi, 21.10. 4:20 11 2 - 200° S
Mi, 21.10. 4:00 13 3 - 210° SW
Mi, 21.10. 3:50 13 3 - 200° S
Mi, 21.10. 3:37 11 2 - 200° S
Mi, 21.10. 3:20 11 2 - 200° S
Mi, 21.10. 3:12 11 2 - 200° S
Mi, 21.10. 3:00 15 3 - 200° S
Mi, 21.10. 2:20 13 3 - 200° S
Mi, 21.10. 2:00 15 3 - 200° S
Mi, 21.10. 1:20 15 3 - 190° S
Mi, 21.10. 1:00 17 3 - 190° S
Ortszeit Untergrenze Bedeckung Gattung
total tief tief mittel hoch
Mi, 21.10. 2:00 90 m 8/8 8/8 - - -
Di, 20.10. 20:00 210 m 8/8 8/8 - - -
Di, 20.10. 14:00 3600 m 8/8 8/8 - - -
Di, 20.10. 8:00 1260 m 8/8 4/8 - - -
Di, 20.10. 2:00 1500 m 6/8 3/8 - - -
Mo, 19.10. 20:00 - 0/8 0/8 - - -
Mo, 19.10. 14:00 1500 m 5/8 5/8 - - -
Mo, 19.10. 8:00 1230 m 1/8 1/8 - - -
Ortszeit Bedeckungsgrad in Achtel und Wolkenuntergrenze
Mi, 21.10. 4:20 8(150m)
Mi, 21.10. 4:00 8(150m)
Mi, 21.10. 3:50 8(150m)
Mi, 21.10. 3:37 8(120m)
Mi, 21.10. 3:20 8(120m)
Mi, 21.10. 3:12 8(120m)
Mi, 21.10. 3:00 8(120m)
Mi, 21.10. 2:20 8(90m)
Mi, 21.10. 2:00 8(90m)
Mi, 21.10. 1:20 8(60m)
Mi, 21.10. 1:00 8(90m)
Ortszeit Luftdruck NN (hPa) Tendenz (hPa in 3 Std.)
Mi, 21.10. 2:00 1004 - 0,2
Di, 20.10. 20:00 1004 - 0,9
Di, 20.10. 14:00 1008 - 2,2
Di, 20.10. 8:00 1012 - 2,0
Di, 20.10. 2:00 1015 - 1,2
Mo, 19.10. 20:00 1017 - 0,6
Mo, 19.10. 14:00 1018 - 0,1
Mo, 19.10. 8:00 1017 + 0,3
Ortszeit Luftdruck NN (hPa) Tendenz (hPa in 3 Std.)
Mi, 21.10. 4:20 1003 keine Meldung
Mi, 21.10. 4:00 1004 + 0,2
Mi, 21.10. 3:50 1003 keine Meldung
Mi, 21.10. 3:37 1003 keine Meldung
Mi, 21.10. 3:20 1003 keine Meldung
Mi, 21.10. 3:12 1003 keine Meldung
Mi, 21.10. 3:00 1004 + 0,1
Mi, 21.10. 2:20 1003 keine Meldung
Mi, 21.10. 2:00 1004 - 0,2
Mi, 21.10. 1:20 1003 keine Meldung
Mi, 21.10. 1:00 1003 - 0,7
Ortszeit Schneehöhe (cm)
Mi, 21.10. 2:00 -
Di, 20.10. 20:00 -
Di, 20.10. 14:00 -
Di, 20.10. 8:00 -
Di, 20.10. 2:00 -
Mo, 19.10. 20:00 -
Mo, 19.10. 14:00 -
Mo, 19.10. 8:00 -
Ortszeit Schneehöhe (cm)
Mi, 21.10. 4:20 -
Mi, 21.10. 4:00 -
Mi, 21.10. 3:50 -
Mi, 21.10. 3:37 -
Mi, 21.10. 3:20 -
Mi, 21.10. 3:12 -
Mi, 21.10. 3:00 -
Mi, 21.10. 2:20 -
Mi, 21.10. 2:00 -
Mi, 21.10. 1:20 -
Mi, 21.10. 1:00 -
Link zu dieser Seite / Seite empfehlen

Das Wetter in ...